Hartfield, Virginia
Current Conditions -  °F | °C
As of 6:15 AM on Thursday 23 Oct 2014 (Local Time) from KW75 Reporting Station
Overcast Overcast  
Wind Chill: 54°   Ceiling: 3100
Heat Index: 54°   Visibility: 10mi
Dew Point: 45°   Wind: 17mph
Humidity: 72%   Direction: 310°NW
Pressure: 29.86"   Gusts: 25mph
Location:  37.55°N, 76.45°W
Report Text: KW75 231015Z AUTO 31015G22KT 10SM OVC031 12/07 A2986 RMK AO1 T01200070
Loading
Personal Weather Stations






























Interactive Weather Map
Tropical Storm Tracking
New forecast layout! Learn more

10-Day Weather Forecast

Advertisements
Track Severe Weather on mobile